Flight Track Log - Related Links

Times and Time Zones

All times are in EDT time to prevent confusion due to time zone crossing. See the BEL3160 flight status page for this flight to view local times or setup timezone preferences in your user account.

Time Position Orientation Groundspeed Altitude Reporting Facility
EDT Latitude Longitude Course Direction KTS MPH feet Rate Location/Type
Mon 03:09:00 PM 46.2398 8.2860 333° Northwest  Level Estimated
Mon 03:10:00 PM 46.3158 8.2300 333° Northwest  Level Estimated
Mon 03:11:00 PM 46.3918 8.1739 333° Northwest  Level Estimated
Mon 03:12:00 PM 46.4678 8.1177 333° Northwest  Level Estimated
Mon 03:13:00 PM 46.5438 8.0612 333° Northwest  Level Estimated
Mon 03:14:00 PM 46.6197 8.0047 333° Northwest  Level Estimated
Mon 03:15:00 PM 46.6956 7.9479 333° Northwest  Level Estimated
Mon 03:16:00 PM 46.7714 7.8910 333° Northwest  Level Estimated
Mon 03:17:00 PM 46.8473 7.8340 333° Northwest  Level Estimated
Mon 03:18:00 PM 46.9231 7.7767 333° Northwest  Level Estimated
Mon 03:19:00 PM 46.9989 7.7193 333° Northwest  Level Estimated
Mon 03:20:00 PM 47.0746 7.6618 333° Northwest  Level Estimated
Mon 03:21:00 PM 47.1503 7.6041 333° Northwest  Level Estimated
Mon 03:22:00 PM 47.2260 7.5462 333° Northwest  Level Estimated
Mon 03:23:00 PM 47.3017 7.4882 333° Northwest  Level Estimated
Mon 03:24:00 PM 47.3773 7.4300 332° Northwest  Level Estimated
Mon 03:25:00 PM 47.4529 7.3716 332° Northwest  Level Estimated
Mon 03:26:00 PM 47.5285 7.3130 332° Northwest  Level Estimated
Mon 03:27:00 PM 47.6040 7.2543 332° Northwest  Level Estimated
Mon 03:28:00 PM 47.6795 7.1954 332° Northwest  Level Estimated
Mon 03:29:00 PM 47.7550 7.1364 332° Northwest  Level Estimated
Mon 03:30:00 PM 47.8304 7.0772 332° Northwest  Level Estimated
Mon 03:31:00 PM 47.9059 7.0178 332° Northwest  Level Estimated
Mon 03:32:00 PM 47.9813 6.9582 332° Northwest  Level Estimated
Mon 03:33:00 PM 48.0566 6.8985 332° Northwest  Level Estimated
Mon 03:34:00 PM 48.1320 6.8386 332° Northwest  Level Estimated
Mon 03:35:00 PM 48.2072 6.7785 332° Northwest  Level Estimated
Mon 03:36:00 PM 48.2825 6.7182 332° Northwest  Level Estimated
Mon 03:37:00 PM 48.3578 6.6577 332° Northwest  Level Estimated
Mon 03:38:00 PM 48.4330 6.5971 332° Northwest  Level Estimated
Mon 03:39:00 PM 48.5081 6.5363 332° Northwest  Level Estimated
Mon 03:40:00 PM 48.5833 6.4753 332° Northwest  Level Estimated
Mon 03:41:00 PM 48.6584 6.4141 332° Northwest  Level Estimated
Mon 03:42:00 PM 48.7335 6.3528 332° Northwest  Level Estimated
Mon 03:43:00 PM 48.8085 6.2912 332° Northwest  Level Estimated
Mon 03:44:00 PM 48.8835 6.2295 332° Northwest  Level Estimated
Mon 03:45:00 PM 48.9585 6.1676 332° Northwest  Level Estimated
Mon 03:46:00 PM 49.0334 6.1055 331° Northwest  Level Estimated
Mon 03:47:00 PM 49.1083 6.0432 331° Northwest  Level Estimated
Mon 03:48:00 PM 49.1832 5.9808 331° Northwest  Level Estimated
Mon 03:49:00 PM 49.2580 5.9181 331° Northwest  Level Estimated
Mon 03:50:00 PM 49.3329 5.8553 331° Northwest  Level Estimated
Mon 03:51:00 PM 49.4076 5.7922 331° Northwest  Level Estimated
Mon 03:52:00 PM 49.4824 5.7290 331° Northwest  Level Estimated
Mon 03:53:00 PM 49.5571 5.6656 331° Northwest  Level Estimated
Mon 03:54:00 PM 49.6317 5.6020 331° Northwest  Level Estimated
Mon 03:55:00 PM 49.7064 5.5381 331° Northwest  Level Estimated
Mon 03:56:00 PM 49.7810 5.4741 331° Northwest  Level Estimated
Mon 03:57:00 PM 49.8555 5.4099 331° Northwest  Level Estimated
Mon 03:58:00 PM 49.9301 5.3455 331° Northwest  Level Estimated
Mon 03:59:00 PM 50.0046 5.2809 331° Northwest  Level Estimated
Mon 04:00:00 PM 50.0790 5.2161 331° Northwest  Level Estimated
Mon 04:01:00 PM 50.1534 5.1511 331° Northwest  Level Estimated
Mon 04:02:00 PM 50.2278 5.0859 331° Northwest  Level Estimated
Mon 04:03:00 PM 50.3022 5.0205 331° Northwest  Level Estimated
Mon 04:04:00 PM 50.3765 4.9548 331° Northwest  Level Estimated
Mon 04:05:00 PM 50.4507 4.8890 331° Northwest  Level Estimated
Mon 04:06:00 PM 50.5250 4.8230 331° Northwest  Level Estimated
Mon 04:07:00 PM 50.5992 4.7568 330° Northwest  Level Estimated
Mon 04:08:00 PM 50.6734 4.6903 330° Northwest  Level Estimated
Mon 04:09:00 PM 50.7475 4.6236 330° Northwest  Level Estimated
Mon 04:10:00 PM 50.8216 4.5568 330° Northwest  Level Estimated
Mon 04:11:00 PM 50.8956 4.4897 330° Northwest  Level Estimated
Mon 04:12:00 PM 50.9014 4.4844 330° Northwest  Level Estimated
Mon 04:13:00 PM 50.9014 4.4844 112° Southeast  Level Estimated
Mon 04:14:00 PM 50.9014 4.4844 112° Southeast  Level Estimated
Mon 04:15:00 PM 50.9014 4.4844 112° Southeast  Level Estimated
Mon 04:16:00 PM 50.9014 4.4844 112° Southeast  Level Estimated
Mon 04:17:00 PM 50.9014 4.4844 112° Southeast  Level Estimated
Mon 04:18:00 PM 50.9014 4.4844 112° Southeast  Level Estimated
Mon 04:19:00 PM 50.9014 4.4844 112° Southeast  Level Estimated
Mon 04:20:00 PM 50.9014 4.4844 112° Southeast  Level Estimated
Mon 04:21:00 PM 50.9014 4.4844 112° Southeast  Level Estimated

Login

Don't have an account? Register now (free) for customized features, flight alerts, and more!